createdAt,value
2022-09-20T00:04:43.641Z,10.85
2022-09-20T00:09:44.888Z,10.92
2022-09-20T00:14:46.193Z,10.93
2022-09-20T00:19:47.533Z,10.94
2022-09-20T00:24:49.216Z,10.88
2022-09-20T00:29:50.607Z,10.74
2022-09-20T00:35:10.621Z,10.81
2022-09-20T00:40:20.494Z,10.78
2022-09-20T00:45:24.156Z,10.75
2022-09-20T00:50:44.543Z,10.64
2022-09-20T00:56:00.902Z,10.64
2022-09-20T01:01:05.496Z,10.64
2022-09-20T01:06:09.808Z,10.62
2022-09-20T01:11:11.356Z,10.53
2022-09-20T01:16:14.970Z,10.49
2022-09-20T01:21:18.393Z,10.47
2022-09-20T01:26:31.530Z,10.41
2022-09-20T01:31:36.303Z,10.38
2022-09-20T01:36:52.217Z,10.22
2022-09-20T01:41:58.621Z,10.24
2022-09-20T01:47:10.514Z,10.11
2022-09-20T01:52:30.677Z,10.08
2022-09-20T01:57:53.356Z,10.05
2022-09-20T02:03:29.445Z,10.04
2022-09-20T02:09:12.699Z,10.25
2022-09-20T02:15:09.997Z,9.70
2022-09-20T02:20:44.717Z,9.59
2022-09-20T02:26:14.105Z,10.00
2022-09-20T02:31:21.446Z,9.98
2022-09-20T02:36:47.126Z,9.98
2022-09-20T02:42:15.996Z,9.89
2022-09-20T02:47:34.016Z,9.90
2022-09-20T02:53:13.521Z,9.88
2022-09-20T02:58:40.815Z,9.86
2022-09-20T03:04:38.696Z,9.85
2022-09-20T03:10:12.632Z,9.75
2022-09-20T03:15:30.672Z,9.89
2022-09-20T03:20:46.173Z,9.85
2022-09-20T03:25:57.072Z,9.88
2022-09-20T03:31:15.079Z,9.89
2022-09-20T03:36:32.889Z,9.92
2022-09-20T03:41:58.393Z,9.96
2022-09-20T03:47:37.392Z,10.35
2022-09-20T03:52:51.796Z,10.25
2022-09-20T03:58:11.016Z,10.35
2022-09-20T04:03:32.569Z,10.41
2022-09-20T04:08:48.469Z,10.40
2022-09-20T04:14:16.728Z,10.58
2022-09-20T04:19:29.654Z,10.57
2022-09-20T04:24:48.264Z,10.71
2022-09-20T04:30:05.290Z,10.71
2022-09-20T04:35:44.184Z,10.87
2022-09-20T04:41:37.754Z,10.90
2022-09-20T04:46:55.860Z,10.93
2022-09-20T04:52:26.911Z,10.92
2022-09-20T04:58:07.635Z,10.96
2022-09-20T05:03:32.009Z,10.99
2022-09-20T05:08:46.613Z,10.99
2022-09-20T05:13:50.966Z,11.02
2022-09-20T05:19:15.392Z,11.06
2022-09-20T05:24:53.948Z,11.11
2022-09-20T05:30:04.438Z,10.95
2022-09-20T05:35:12.887Z,11.14
2022-09-20T05:40:29.234Z,11.10
2022-09-20T05:46:14.797Z,11.11
2022-09-20T05:51:51.668Z,11.09
2022-09-20T05:57:20.925Z,11.10
2022-09-20T06:02:37.792Z,11.12
2022-09-20T06:07:57.413Z,11.26
2022-09-20T06:13:13.742Z,11.22
2022-09-20T06:18:40.455Z,11.30
2022-09-20T06:23:42.188Z,11.43
2022-09-20T06:28:49.952Z,11.48
2022-09-20T06:33:55.051Z,11.58
2022-09-20T06:39:18.112Z,11.63
2022-09-20T06:44:19.505Z,11.69
2022-09-20T06:49:21.119Z,11.74
2022-09-20T06:54:23.158Z,11.80
2022-09-20T06:59:24.545Z,11.89
2022-09-20T07:04:26.860Z,11.80
2022-09-20T07:09:29.264Z,11.95
2022-09-20T07:14:30.992Z,11.81
2022-09-20T07:19:32.380Z,12.06
2022-09-20T07:24:33.629Z,12.07
2022-09-20T07:29:35.345Z,12.08
2022-09-20T07:34:36.646Z,12.14
2022-09-20T07:39:38.216Z,12.26
2022-09-20T07:44:42.168Z,12.18
2022-09-20T07:49:43.509Z,12.43
2022-09-20T07:54:45.880Z,12.46
2022-09-20T07:59:47.189Z,12.54
2022-09-20T08:04:49.863Z,12.63
2022-09-20T08:09:51.202Z,12.75
2022-09-20T08:14:52.549Z,12.90
2022-09-20T08:19:53.870Z,13.04
2022-09-20T08:24:55.103Z,12.85
2022-09-20T08:29:57.436Z,13.01
2022-09-20T08:34:59.033Z,13.16
2022-09-20T08:40:00.563Z,13.22
2022-09-20T08:45:07.062Z,13.37
2022-09-20T08:50:17.733Z,13.38
2022-09-20T08:55:27.981Z,13.51
2022-09-20T09:00:33.356Z,13.58
2022-09-20T09:05:47.878Z,13.74
2022-09-20T09:10:54.610Z,13.78
2022-09-20T09:15:59.794Z,13.85
2022-09-20T09:21:04.791Z,13.94
2022-09-20T09:26:15.881Z,14.11
2022-09-20T09:31:25.825Z,14.14
2022-09-20T09:36:27.397Z,14.17
2022-09-20T09:41:33.359Z,14.23
2022-09-20T09:46:36.352Z,14.27
2022-09-20T09:51:38.584Z,14.24
2022-09-20T09:56:52.327Z,14.09
2022-09-20T10:02:06.597Z,14.15
2022-09-20T10:07:35.928Z,14.07
2022-09-20T10:13:04.073Z,14.15
2022-09-20T10:18:16.277Z,14.26
2022-09-20T10:23:51.869Z,14.23
2022-09-20T10:29:00.986Z,14.35
2022-09-20T10:34:24.073Z,14.40
2022-09-20T10:39:35.338Z,14.44
2022-09-20T10:45:11.863Z,14.68
2022-09-20T10:50:43.465Z,14.69
2022-09-20T10:56:13.045Z,14.78
2022-09-20T11:01:29.845Z,14.73
2022-09-20T11:06:51.489Z,14.96
2022-09-20T11:12:01.088Z,14.81
2022-09-20T11:17:16.648Z,14.93
2022-09-20T11:22:29.498Z,15.00
2022-09-20T11:27:38.249Z,14.98
2022-09-20T11:32:46.381Z,15.00
2022-09-20T11:37:57.222Z,15.24
2022-09-20T11:43:06.043Z,15.23
2022-09-20T11:48:19.903Z,15.32
2022-09-20T11:53:49.312Z,15.37
2022-09-20T11:58:55.122Z,15.41
2022-09-20T12:04:27.894Z,15.64
2022-09-20T12:09:35.154Z,15.66
2022-09-20T12:14:36.617Z,15.79
2022-09-20T12:19:38.730Z,15.68
2022-09-20T12:24:45.193Z,15.73
2022-09-20T12:29:50.097Z,15.72
2022-09-20T12:34:52.444Z,15.77
2022-09-20T12:39:55.551Z,16.00
2022-09-20T12:45:04.630Z,15.99
2022-09-20T12:50:34.138Z,15.78
2022-09-20T12:55:45.640Z,15.89
2022-09-20T13:00:51.792Z,15.92
2022-09-20T13:06:05.918Z,15.87
2022-09-20T13:11:07.217Z,15.88
2022-09-20T13:16:22.260Z,15.93
2022-09-20T13:21:24.011Z,16.14
2022-09-20T13:26:40.827Z,16.15
2022-09-20T13:31:43.069Z,16.11
2022-09-20T13:36:45.943Z,15.98
2022-09-20T13:41:48.433Z,15.86
2022-09-20T13:46:49.782Z,15.78
2022-09-20T13:51:51.987Z,15.81
2022-09-20T13:56:56.190Z,15.74
2022-09-20T14:01:57.679Z,15.58
2022-09-20T14:07:00.612Z,15.57
2022-09-20T14:12:04.596Z,15.48
2022-09-20T14:17:09.425Z,15.52
2022-09-20T14:22:26.703Z,15.32
2022-09-20T14:27:31.008Z,15.48
2022-09-20T14:33:02.065Z,15.50
2022-09-20T14:38:10.133Z,15.36
2022-09-20T14:43:32.599Z,15.46
2022-09-20T14:48:36.780Z,15.52
2022-09-20T14:53:38.324Z,15.49
2022-09-20T14:59:17.020Z,15.62
2022-09-20T15:04:21.709Z,15.68
2022-09-20T15:09:23.207Z,15.64
2022-09-20T15:14:24.529Z,15.57
2022-09-20T15:19:26.088Z,15.76
2022-09-20T15:24:27.500Z,15.80
2022-09-20T15:29:29.100Z,15.71
2022-09-20T15:34:30.926Z,15.73
2022-09-20T15:39:32.410Z,15.73
2022-09-20T15:44:33.938Z,15.68
2022-09-20T15:49:35.538Z,15.64
2022-09-20T15:54:36.885Z,15.43
2022-09-20T15:59:38.228Z,15.27
2022-09-20T16:04:39.647Z,15.20
2022-09-20T16:09:40.965Z,14.95
2022-09-20T16:14:42.376Z,15.19
2022-09-20T16:19:46.056Z,15.11
2022-09-20T16:24:47.396Z,15.19
2022-09-20T16:29:48.641Z,15.18
2022-09-20T16:34:51.009Z,15.21
2022-09-20T16:39:52.356Z,15.17
2022-09-20T16:44:53.643Z,15.09
2022-09-20T16:49:56.222Z,15.11
2022-09-20T16:54:57.589Z,15.05
2022-09-20T16:59:59.586Z,15.06
2022-09-20T17:05:00.935Z,14.86
2022-09-20T17:10:02.564Z,14.89
2022-09-20T17:15:03.968Z,14.81
2022-09-20T17:20:07.689Z,14.69
2022-09-20T17:25:09.304Z,14.71
2022-09-20T17:30:10.933Z,14.62
2022-09-20T17:35:12.263Z,14.54
2022-09-20T17:40:13.532Z,14.40
2022-09-20T17:45:16.164Z,14.42
2022-09-20T17:50:17.565Z,14.33
2022-09-20T17:55:18.933Z,14.16
2022-09-20T18:00:20.301Z,14.16
2022-09-20T18:05:21.637Z,13.88
2022-09-20T18:10:28.684Z,13.91
2022-09-20T18:15:31.859Z,13.44
2022-09-20T18:20:33.949Z,13.39
2022-09-20T18:25:55.262Z,13.46
2022-09-20T18:31:04.358Z,13.14
2022-09-20T18:36:06.054Z,13.26
2022-09-20T18:41:07.460Z,12.88
2022-09-20T18:46:10.727Z,13.06
2022-09-20T18:51:12.032Z,12.88
2022-09-20T18:56:28.788Z,12.83
2022-09-20T19:01:48.747Z,12.72
2022-09-20T19:07:05.171Z,12.76
2022-09-20T19:12:17.612Z,12.51
2022-09-20T19:17:25.422Z,12.35
2022-09-20T19:22:50.644Z,12.09
2022-09-20T19:27:52.694Z,12.30
2022-09-20T19:32:54.224Z,12.01
2022-09-20T19:38:01.065Z,12.04
2022-09-20T19:43:45.422Z,11.97
2022-09-20T19:48:56.779Z,11.78
2022-09-20T19:53:58.498Z,11.83
2022-09-20T19:59:00.139Z,11.85
2022-09-20T20:04:03.638Z,11.79
2022-09-20T20:09:27.132Z,11.63
2022-09-20T20:14:28.444Z,11.45
2022-09-20T20:19:46.546Z,11.48
2022-09-20T20:24:47.878Z,11.58
2022-09-20T20:29:49.584Z,11.32
2022-09-20T20:34:51.181Z,11.24
2022-09-20T20:39:53.479Z,11.14
2022-09-20T20:44:54.810Z,10.97
2022-09-20T20:49:56.120Z,10.96
2022-09-20T20:54:59.907Z,10.76
2022-09-20T21:00:01.480Z,10.82
2022-09-20T21:05:02.907Z,11.02
2022-09-20T21:10:04.365Z,11.04
2022-09-20T21:15:06.069Z,10.87
2022-09-20T21:20:08.320Z,10.55
2022-09-20T21:25:09.897Z,10.66
2022-09-20T21:30:11.761Z,10.63
2022-09-20T21:35:13.077Z,10.30
2022-09-20T21:40:14.497Z,10.46
2022-09-20T21:45:20.616Z,10.14
2022-09-20T21:50:22.365Z,10.23
2022-09-20T21:55:23.690Z,10.12
2022-09-20T22:00:26.201Z,10.12
2022-09-20T22:05:27.793Z,10.12
2022-09-20T22:10:29.247Z,10.18
2022-09-20T22:15:30.532Z,10.11
2022-09-20T22:20:31.891Z,9.90
2022-09-20T22:25:34.144Z,9.84
2022-09-20T22:30:35.570Z,9.74
2022-09-20T22:35:43.384Z,9.52
2022-09-20T22:40:55.243Z,9.76
2022-09-20T22:46:06.047Z,9.79
2022-09-20T22:51:10.439Z,9.53
2022-09-20T22:56:17.041Z,9.26
2022-09-20T23:01:21.753Z,9.26
2022-09-20T23:06:32.117Z,9.45
2022-09-20T23:11:34.603Z,9.55
2022-09-20T23:16:37.834Z,9.36
2022-09-20T23:21:40.477Z,9.17
2022-09-20T23:26:43.179Z,9.03
2022-09-20T23:31:47.085Z,9.21
2022-09-20T23:36:48.732Z,8.96
2022-09-20T23:41:51.230Z,8.96
2022-09-20T23:46:52.834Z,8.93
2022-09-20T23:51:54.236Z,8.82
2022-09-20T23:56:55.548Z,8.70
